createdAt,value
2023-02-13T00:00:57.480Z,7.75
2023-02-13T00:03:25.041Z,7.05
2023-02-13T00:05:52.473Z,8.47
2023-02-13T00:08:19.860Z,6.50
2023-02-13T00:10:48.037Z,9.07
2023-02-13T00:13:15.579Z,6.93
2023-02-13T00:15:43.062Z,7.45
2023-02-13T00:18:10.536Z,6.82
2023-02-13T00:20:37.864Z,7.07
2023-02-13T00:23:05.320Z,8.93
2023-02-13T00:25:32.738Z,5.80
2023-02-13T00:28:00.207Z,10.05
2023-02-13T00:30:28.284Z,9.20
2023-02-13T00:32:57.073Z,8.07
2023-02-13T00:35:25.346Z,8.45
2023-02-13T00:37:53.436Z,9.13
2023-02-13T00:40:25.297Z,13.07
2023-02-13T00:42:52.687Z,6.90
2023-02-13T00:45:20.205Z,4.70
2023-02-13T00:47:47.967Z,5.22
2023-02-13T00:50:15.535Z,7.07
2023-02-13T00:52:43.145Z,7.53
2023-02-13T00:55:10.515Z,4.82
2023-02-13T00:57:37.979Z,5.40
2023-02-13T01:00:05.757Z,14.35
2023-02-13T01:02:36.292Z,6.88
2023-02-13T01:05:03.839Z,5.70
2023-02-13T01:07:31.337Z,7.43
2023-02-13T01:09:58.732Z,6.20
2023-02-13T01:12:27.595Z,5.55
2023-02-13T01:14:55.088Z,7.25
2023-02-13T01:17:22.577Z,7.63
2023-02-13T01:19:50.017Z,7.03
2023-02-13T01:22:17.387Z,8.43
2023-02-13T01:24:44.776Z,6.45
2023-02-13T01:27:12.314Z,9.00
2023-02-13T01:29:39.735Z,7.10
2023-02-13T01:32:07.237Z,9.27
2023-02-13T01:34:34.813Z,7.60
2023-02-13T01:37:02.216Z,13.93
2023-02-13T01:39:29.668Z,12.88
2023-02-13T01:41:57.094Z,5.97
2023-02-13T01:44:43.401Z,6.05
2023-02-13T01:47:12.959Z,9.05
2023-02-13T01:49:41.312Z,4.18
2023-02-13T01:52:09.630Z,9.07
2023-02-13T01:54:36.987Z,6.10
2023-02-13T01:57:10.519Z,8.98
2023-02-13T01:59:48.291Z,9.75
2023-02-13T02:02:16.440Z,4.97
2023-02-13T02:04:45.295Z,11.80
2023-02-13T02:07:22.252Z,7.63
2023-02-13T02:09:51.651Z,7.78
2023-02-13T02:12:29.534Z,6.78
2023-02-13T02:14:58.278Z,5.57
2023-02-13T02:17:26.720Z,6.05
2023-02-13T02:20:12.954Z,6.15
2023-02-13T02:22:58.995Z,4.35
2023-02-13T02:25:31.940Z,7.15
2023-02-13T02:28:04.100Z,9.85
2023-02-13T02:30:37.619Z,7.45
2023-02-13T02:33:24.043Z,8.40
2023-02-13T02:36:02.352Z,9.73
2023-02-13T02:38:52.507Z,4.15
2023-02-13T02:41:43.198Z,5.82
2023-02-13T02:44:16.133Z,6.43
2023-02-13T02:47:25.372Z,12.68
2023-02-13T02:50:12.404Z,6.45
2023-02-13T02:52:39.917Z,5.90
2023-02-13T02:55:14.588Z,9.68
2023-02-13T02:58:13.941Z,7.93
2023-02-13T03:01:00.742Z,7.45
2023-02-13T03:03:47.367Z,5.15
2023-02-13T03:06:18.966Z,9.23
2023-02-13T03:09:09.893Z,12.30
2023-02-13T03:11:56.413Z,8.80
2023-02-13T03:14:26.276Z,7.85
2023-02-13T03:17:12.736Z,6.10
2023-02-13T03:20:31.784Z,5.05
2023-02-13T03:22:59.357Z,5.60
2023-02-13T03:25:36.116Z,6.68
2023-02-13T03:28:22.471Z,6.38
2023-02-13T03:31:07.432Z,8.20
2023-02-13T03:33:47.943Z,6.75
2023-02-13T03:36:33.931Z,7.07
2023-02-13T03:39:07.554Z,8.55
2023-02-13T03:41:38.782Z,4.05
2023-02-13T03:44:09.323Z,3.95
2023-02-13T03:46:39.334Z,7.68
2023-02-13T03:49:25.904Z,7.70
2023-02-13T03:52:05.538Z,8.93
2023-02-13T03:55:06.508Z,2.85
2023-02-13T03:57:55.548Z,4.78
2023-02-13T04:00:24.625Z,3.38
2023-02-13T04:03:01.571Z,4.03
2023-02-13T04:05:31.090Z,4.47
2023-02-13T04:07:58.498Z,5.93
2023-02-13T04:10:27.187Z,3.92
2023-02-13T04:13:03.635Z,8.05
2023-02-13T04:15:33.932Z,7.95
2023-02-13T04:18:15.838Z,6.75
2023-02-13T04:20:43.478Z,5.95
2023-02-13T04:23:12.288Z,6.88
2023-02-13T04:25:41.151Z,4.93
2023-02-13T04:28:09.334Z,6.22
2023-02-13T04:30:37.170Z,5.45
2023-02-13T04:33:04.923Z,8.80
2023-02-13T04:35:32.423Z,5.90
2023-02-13T04:37:59.917Z,4.25
2023-02-13T04:40:27.555Z,4.40
2023-02-13T04:42:55.035Z,4.28
2023-02-13T04:45:22.441Z,9.02
2023-02-13T04:47:51.294Z,7.72
2023-02-13T04:50:19.106Z,4.45
2023-02-13T04:52:46.644Z,15.63
2023-02-13T04:55:14.871Z,7.78
2023-02-13T04:57:42.618Z,7.03
2023-02-13T05:00:11.398Z,4.20
2023-02-13T05:02:39.705Z,7.15
2023-02-13T05:05:07.381Z,6.93
2023-02-13T05:07:34.855Z,6.40
2023-02-13T05:10:02.293Z,8.02
2023-02-13T05:12:30.405Z,11.68
2023-02-13T05:14:57.972Z,3.92
2023-02-13T05:17:28.180Z,6.72
2023-02-13T05:19:56.009Z,8.73
2023-02-13T05:22:42.120Z,5.53
2023-02-13T05:25:09.665Z,10.00
2023-02-13T05:27:37.170Z,8.95
2023-02-13T05:30:04.854Z,5.97
2023-02-13T05:32:32.405Z,6.38
2023-02-13T05:34:59.971Z,8.48
2023-02-13T05:37:28.261Z,5.57
2023-02-13T05:39:55.763Z,6.25
2023-02-13T05:42:23.218Z,17.23
2023-02-13T05:44:50.865Z,11.48
2023-02-13T05:47:19.929Z,5.95
2023-02-13T05:49:47.312Z,9.82
2023-02-13T05:52:17.435Z,7.25
2023-02-13T05:54:44.979Z,6.05
2023-02-13T05:57:12.367Z,8.90
2023-02-13T05:59:40.105Z,4.82
2023-02-13T06:02:09.956Z,6.20
2023-02-13T06:04:37.545Z,4.95
2023-02-13T06:07:05.150Z,13.23
2023-02-13T06:09:32.661Z,3.58
2023-02-13T06:12:00.100Z,7.25
2023-02-13T06:14:30.602Z,9.27
2023-02-13T06:17:00.562Z,10.60
2023-02-13T06:19:28.040Z,2.70
2023-02-13T06:21:58.130Z,6.68
2023-02-13T06:24:25.910Z,4.00
2023-02-13T06:26:53.341Z,5.65
2023-02-13T06:29:20.810Z,8.38
2023-02-13T06:31:50.589Z,9.40
2023-02-13T06:34:18.074Z,10.65
2023-02-13T06:36:45.603Z,13.45
2023-02-13T06:39:13.241Z,7.00
2023-02-13T06:41:40.763Z,14.38
2023-02-13T06:44:08.515Z,6.30
2023-02-13T06:46:36.143Z,10.65
2023-02-13T06:49:09.802Z,13.23
2023-02-13T06:51:37.332Z,7.82
2023-02-13T06:54:04.729Z,17.70
2023-02-13T06:56:33.088Z,5.13
2023-02-13T06:59:00.620Z,7.70
2023-02-13T07:01:28.274Z,7.00
2023-02-13T07:03:56.299Z,5.38
2023-02-13T07:06:23.753Z,8.25
2023-02-13T07:08:55.490Z,7.85
2023-02-13T07:11:25.625Z,16.88
2023-02-13T07:14:00.063Z,7.10
2023-02-13T07:16:31.414Z,6.75
2023-02-13T07:18:58.935Z,8.35
2023-02-13T07:21:26.680Z,6.57
2023-02-13T07:23:54.241Z,11.73
2023-02-13T07:26:21.966Z,9.07
2023-02-13T07:28:54.773Z,11.43
2023-02-13T07:31:27.249Z,10.13
2023-02-13T07:33:54.981Z,6.13
2023-02-13T07:36:25.142Z,6.88
2023-02-13T07:38:54.732Z,8.18
2023-02-13T07:41:22.338Z,10.07
2023-02-13T07:43:50.260Z,12.30
2023-02-13T07:46:17.694Z,4.85
2023-02-13T07:48:45.204Z,6.72
2023-02-13T07:51:12.698Z,9.82
2023-02-13T07:53:40.272Z,10.10
2023-02-13T07:56:08.029Z,28.15
2023-02-13T07:58:40.259Z,6.72
2023-02-13T08:01:12.182Z,7.20
2023-02-13T08:03:40.108Z,6.15
2023-02-13T08:06:08.199Z,4.22
2023-02-13T08:08:40.795Z,21.42
2023-02-13T08:11:46.386Z,8.35
2023-02-13T08:14:14.549Z,6.28
2023-02-13T08:16:42.366Z,13.27
2023-02-13T08:19:10.249Z,12.95
2023-02-13T08:21:47.172Z,5.10
2023-02-13T08:24:14.726Z,10.68
2023-02-13T08:26:42.376Z,25.55
2023-02-13T08:29:11.571Z,15.13
2023-02-13T08:31:39.137Z,14.43
2023-02-13T08:34:10.265Z,12.35
2023-02-13T08:36:38.317Z,10.38
2023-02-13T08:39:06.196Z,16.88
2023-02-13T08:41:34.269Z,24.48
2023-02-13T08:44:02.149Z,19.35
2023-02-13T08:46:31.069Z,12.27
2023-02-13T08:49:09.067Z,19.52
2023-02-13T08:51:37.486Z,14.43
2023-02-13T08:54:05.047Z,15.68
2023-02-13T08:56:32.619Z,20.30
2023-02-13T08:59:07.358Z,20.02
2023-02-13T09:01:43.498Z,6.38
2023-02-13T09:04:16.193Z,16.55
2023-02-13T09:06:43.890Z,11.63
2023-02-13T09:09:13.716Z,11.70
2023-02-13T09:11:44.532Z,15.48
2023-02-13T09:14:11.958Z,14.93
2023-02-13T09:16:51.652Z,21.98
2023-02-13T09:19:20.396Z,21.70
2023-02-13T09:21:47.880Z,21.50
2023-02-13T09:24:15.379Z,16.38
2023-02-13T09:26:42.853Z,24.45
2023-02-13T09:29:11.335Z,18.95
2023-02-13T09:31:38.862Z,13.27
2023-02-13T09:34:06.370Z,7.38
2023-02-13T09:36:34.144Z,9.27
2023-02-13T09:39:01.819Z,20.58
2023-02-13T09:41:33.848Z,10.85
2023-02-13T09:44:03.349Z,23.02
2023-02-13T09:46:38.600Z,16.10
2023-02-13T09:49:13.260Z,28.05
2023-02-13T09:51:42.119Z,27.70
2023-02-13T09:54:13.889Z,13.25
2023-02-13T09:56:52.881Z,32.15
2023-02-13T09:59:23.540Z,17.70
2023-02-13T10:01:55.610Z,28.67
2023-02-13T10:04:32.015Z,28.30
2023-02-13T10:07:28.527Z,38.35
2023-02-13T10:10:02.489Z,23.05
2023-02-13T10:12:46.535Z,24.30
2023-02-13T10:15:31.909Z,16.30
2023-02-13T10:18:01.806Z,23.30
2023-02-13T10:20:47.906Z,20.95
2023-02-13T10:23:30.520Z,43.97
2023-02-13T10:26:01.941Z,23.53
2023-02-13T10:28:32.790Z,23.23
2023-02-13T10:31:14.966Z,29.73
2023-02-13T10:33:55.852Z,25.63
2023-02-13T10:36:28.210Z,22.83
2023-02-13T10:39:01.948Z,32.83
2023-02-13T10:41:43.242Z,27.75
2023-02-13T10:44:23.730Z,13.20
2023-02-13T10:47:10.241Z,20.75
2023-02-13T10:50:00.221Z,25.70
2023-02-13T10:52:39.821Z,23.55
2023-02-13T10:55:28.738Z,24.27
2023-02-13T10:58:01.071Z,22.90
2023-02-13T11:00:46.913Z,14.88
2023-02-13T11:03:20.837Z,14.77
2023-02-13T11:05:50.792Z,18.40
2023-02-13T11:08:25.942Z,17.67
2023-02-13T11:10:53.620Z,19.00
2023-02-13T11:13:22.396Z,18.88
2023-02-13T11:16:19.447Z,25.85
2023-02-13T11:18:50.184Z,16.58
2023-02-13T11:21:21.009Z,15.25
2023-02-13T11:23:51.920Z,20.98
2023-02-13T11:26:23.915Z,21.23
2023-02-13T11:28:51.515Z,14.02
2023-02-13T11:31:24.722Z,12.00
2023-02-13T11:36:25.037Z,14.38
2023-02-13T11:39:06.244Z,9.52
2023-02-13T11:41:42.069Z,10.43
2023-02-13T11:44:26.473Z,7.00
2023-02-13T11:46:55.715Z,13.52
2023-02-13T11:49:30.810Z,8.90
2023-02-13T11:52:00.741Z,14.30
2023-02-13T11:54:42.382Z,7.05
2023-02-13T11:57:18.680Z,14.25
2023-02-13T11:59:47.266Z,11.52
2023-02-13T12:02:22.147Z,14.73
2023-02-13T12:04:51.219Z,16.42
2023-02-13T12:07:28.141Z,18.30
2023-02-13T12:10:03.690Z,10.73
2023-02-13T12:15:03.796Z,11.45
2023-02-13T12:17:32.882Z,23.42
2023-02-13T12:20:01.063Z,15.02
2023-02-13T12:22:45.279Z,28.77
2023-02-13T12:25:33.878Z,38.25
2023-02-13T12:28:08.449Z,25.20
2023-02-13T12:30:45.558Z,14.68
2023-02-13T12:33:27.678Z,22.17
2023-02-13T12:36:14.740Z,25.80
2023-02-13T12:38:47.792Z,13.48
2023-02-13T12:41:21.211Z,22.08
2023-02-13T12:44:27.958Z,11.23
2023-02-13T12:47:16.840Z,18.17
2023-02-13T12:49:52.736Z,17.00
2023-02-13T12:52:23.379Z,11.93
2023-02-13T12:54:55.457Z,10.27
2023-02-13T12:57:41.700Z,16.55
2023-02-13T13:00:17.250Z,18.55
2023-02-13T13:02:58.413Z,17.60
2023-02-13T13:05:33.781Z,27.67
2023-02-13T13:08:16.842Z,21.33
2023-02-13T13:10:45.173Z,17.85
2023-02-13T13:13:24.251Z,20.92
2023-02-13T13:15:55.436Z,12.40
2023-02-13T13:18:32.636Z,7.40
2023-02-13T13:21:18.784Z,11.20
2023-02-13T13:23:59.931Z,15.77
2023-02-13T13:26:27.574Z,19.23
2023-02-13T13:28:56.747Z,11.25
2023-02-13T13:31:26.484Z,24.23
2023-02-13T13:33:58.705Z,16.55
2023-02-13T13:36:35.694Z,23.92
2023-02-13T13:39:04.624Z,18.42
2023-02-13T13:41:42.826Z,17.85
2023-02-13T13:44:10.586Z,9.52
2023-02-13T13:46:56.632Z,8.98
2023-02-13T13:49:37.404Z,22.60
2023-02-13T13:52:23.750Z,11.20
2023-02-13T13:54:52.804Z,9.02
2023-02-13T13:57:22.808Z,12.23
2023-02-13T14:00:03.663Z,11.65
2023-02-13T14:02:39.616Z,15.45
2023-02-13T14:05:30.712Z,9.52
2023-02-13T14:07:58.217Z,12.48
2023-02-13T14:10:25.731Z,8.98
2023-02-13T14:12:56.503Z,9.45
2023-02-13T14:15:45.765Z,7.63
2023-02-13T14:18:51.449Z,8.85
2023-02-13T14:21:23.266Z,13.57
2023-02-13T14:23:53.519Z,13.90
2023-02-13T14:26:34.417Z,27.08
2023-02-13T14:29:14.475Z,8.73
2023-02-13T14:31:44.091Z,8.93
2023-02-13T14:34:23.293Z,15.27
2023-02-13T14:37:07.473Z,15.75
2023-02-13T14:39:42.380Z,22.10
2023-02-13T14:42:25.823Z,11.88
2023-02-13T14:45:05.405Z,17.17
2023-02-13T14:47:48.247Z,8.07
2023-02-13T14:50:31.252Z,23.58
2023-02-13T14:53:08.877Z,6.53
2023-02-13T14:55:50.891Z,14.15
2023-02-13T14:58:34.570Z,5.75
2023-02-13T15:05:51.981Z,16.67
2023-02-13T15:12:54.599Z,7.45
2023-02-13T15:36:51.173Z,22.67
2023-02-13T15:39:57.982Z,25.00
2023-02-13T15:46:25.509Z,17.77
2023-02-13T15:48:57.835Z,20.40
2023-02-13T15:51:38.911Z,25.80
2023-02-13T15:54:31.651Z,17.30
2023-02-13T15:57:15.982Z,10.57
2023-02-13T16:00:15.394Z,18.30
2023-02-13T16:03:01.428Z,19.23
2023-02-13T16:05:50.506Z,9.93
2023-02-13T16:08:58.151Z,17.90
2023-02-13T16:11:38.574Z,13.68
2023-02-13T16:14:26.699Z,24.75
2023-02-13T16:17:31.965Z,17.80
2023-02-13T16:21:08.348Z,11.05
2023-02-13T16:23:51.425Z,17.85
2023-02-13T16:26:29.536Z,21.60
2023-02-13T16:28:57.683Z,32.28
2023-02-13T16:31:26.137Z,21.77
2023-02-13T16:33:54.475Z,10.60
2023-02-13T16:36:28.186Z,12.52
2023-02-13T16:39:23.593Z,11.90
2023-02-13T16:41:55.778Z,13.23
2023-02-13T16:44:38.580Z,18.80
2023-02-13T16:47:17.518Z,22.97
2023-02-13T16:50:07.525Z,18.80
2023-02-13T16:52:35.311Z,11.75
2023-02-13T16:55:12.415Z,11.27
2023-02-13T16:57:42.159Z,11.63
2023-02-13T17:00:22.248Z,7.05
2023-02-13T17:02:51.150Z,17.70
2023-02-13T17:07:53.216Z,24.10
2023-02-13T17:10:34.138Z,23.05
2023-02-13T17:13:13.584Z,11.23
2023-02-13T17:15:41.943Z,20.52
2023-02-13T17:18:31.765Z,17.33
2023-02-13T17:21:07.611Z,38.55
2023-02-13T17:23:47.504Z,15.00
2023-02-13T17:26:15.298Z,11.15
2023-02-13T17:28:43.402Z,22.42
2023-02-13T17:31:17.205Z,14.60
2023-02-13T17:34:16.317Z,22.95
2023-02-13T17:36:47.759Z,8.85
2023-02-13T17:39:24.516Z,12.07
2023-02-13T17:42:02.509Z,17.25
2023-02-13T17:44:31.626Z,24.27
2023-02-13T17:47:16.599Z,13.23
2023-02-13T17:49:48.332Z,17.75
2023-02-13T17:52:32.073Z,13.18
2023-02-13T17:55:18.164Z,12.57
2023-02-13T17:58:24.803Z,21.90
2023-02-13T18:01:25.665Z,20.08
2023-02-13T18:04:32.155Z,15.75
2023-02-13T18:07:45.011Z,10.80
2023-02-13T18:10:42.376Z,12.10
2023-02-13T18:13:15.321Z,21.40
2023-02-13T18:15:58.106Z,16.60
2023-02-13T18:18:44.225Z,14.25
2023-02-13T18:22:23.969Z,10.95
2023-02-13T18:28:21.861Z,12.35
2023-02-13T18:31:02.833Z,12.52
2023-02-13T18:36:38.714Z,8.45
2023-02-13T18:39:09.885Z,10.25
2023-02-13T18:41:43.586Z,14.57
2023-02-13T18:44:32.081Z,12.07
2023-02-13T18:47:35.938Z,11.60
2023-02-13T18:50:15.050Z,19.25
2023-02-13T18:52:48.045Z,8.93
2023-02-13T18:55:30.734Z,9.77
2023-02-13T18:58:02.641Z,12.82
2023-02-13T19:00:35.342Z,13.45
2023-02-13T19:03:10.027Z,14.13
2023-02-13T19:05:46.474Z,15.38
2023-02-13T19:08:20.383Z,13.48
2023-02-13T19:10:53.903Z,12.00
2023-02-13T19:13:21.886Z,21.15
2023-02-13T19:15:58.804Z,13.73
2023-02-13T19:18:34.202Z,14.95
2023-02-13T19:21:05.057Z,14.25
2023-02-13T19:23:33.208Z,14.98
2023-02-13T19:26:28.025Z,12.10
2023-02-13T19:33:44.115Z,10.85
2023-02-13T19:36:27.847Z,6.90
2023-02-13T19:38:56.505Z,11.45
2023-02-13T19:41:24.339Z,7.75
2023-02-13T19:43:54.731Z,13.60
2023-02-13T19:46:31.950Z,11.75
2023-02-13T19:49:12.951Z,13.73
2023-02-13T19:51:48.475Z,8.10
2023-02-13T19:54:16.277Z,7.30
2023-02-13T19:57:00.405Z,7.22
2023-02-13T19:59:33.011Z,6.80
2023-02-13T20:02:03.227Z,6.65
2023-02-13T20:04:34.489Z,10.18
2023-02-13T20:07:02.152Z,5.32
2023-02-13T20:09:41.809Z,6.72
2023-02-13T20:12:11.838Z,10.38
2023-02-13T20:14:44.131Z,6.78
2023-02-13T20:17:12.175Z,9.60
2023-02-13T20:19:49.319Z,7.57
2023-02-13T20:22:47.489Z,3.50
2023-02-13T20:25:37.094Z,3.10
2023-02-13T20:28:20.413Z,6.65
2023-02-13T20:30:48.233Z,4.03
2023-02-13T20:33:18.895Z,3.20
2023-02-13T20:35:50.327Z,3.42
2023-02-13T20:38:31.169Z,4.43
2023-02-13T20:41:16.806Z,2.00
2023-02-13T20:43:47.284Z,2.90
2023-02-13T20:46:17.955Z,3.38
2023-02-13T20:48:46.210Z,4.55
2023-02-13T20:51:17.241Z,4.47
2023-02-13T20:53:45.299Z,2.58
2023-02-13T20:56:27.157Z,3.33
2023-02-13T20:59:01.140Z,2.15
2023-02-13T21:01:34.613Z,3.47
2023-02-13T21:04:04.883Z,2.08
2023-02-13T21:06:34.142Z,2.08
2023-02-13T21:09:02.260Z,6.90
2023-02-13T21:11:30.117Z,4.68
2023-02-13T21:14:01.181Z,3.47
2023-02-13T21:16:37.357Z,2.50
2023-02-13T21:19:06.933Z,7.03
2023-02-13T21:21:41.058Z,4.30
2023-02-13T21:24:09.563Z,6.75
2023-02-13T21:26:46.685Z,2.83
2023-02-13T21:29:14.199Z,4.55
2023-02-13T21:31:47.520Z,2.63
2023-02-13T21:34:18.295Z,4.53
2023-02-13T21:36:53.098Z,2.03
2023-02-13T21:39:20.650Z,2.95
2023-02-13T21:41:48.124Z,3.45
2023-02-13T21:44:19.040Z,10.65
2023-02-13T21:46:47.050Z,2.65
2023-02-13T21:49:21.309Z,2.85
2023-02-13T21:51:49.183Z,4.50
2023-02-13T21:54:16.914Z,7.57
2023-02-13T21:56:44.856Z,3.10
2023-02-13T21:59:18.332Z,6.22
2023-02-13T22:01:56.137Z,3.95
2023-02-13T22:04:33.350Z,2.65
2023-02-13T22:07:03.786Z,5.30
2023-02-13T22:09:40.569Z,2.22
2023-02-13T22:12:08.515Z,2.17
2023-02-13T22:14:36.001Z,5.55
2023-02-13T22:17:05.920Z,6.25
2023-02-13T22:19:56.702Z,3.03
2023-02-13T22:22:27.417Z,6.15
2023-02-13T22:24:55.062Z,2.40
2023-02-13T22:27:26.244Z,4.70
2023-02-13T22:29:59.560Z,5.18
2023-02-13T22:32:27.133Z,9.77
2023-02-13T22:34:54.738Z,3.40
2023-02-13T22:37:28.771Z,7.55
2023-02-13T22:40:01.928Z,4.07
2023-02-13T22:42:32.073Z,3.72
2023-02-13T22:44:59.617Z,9.65
2023-02-13T22:47:28.414Z,8.65
2023-02-13T22:49:57.109Z,5.20
2023-02-13T22:52:24.703Z,7.50
2023-02-13T22:54:55.362Z,6.35
2023-02-13T22:57:24.907Z,4.07
2023-02-13T23:00:00.236Z,4.53
2023-02-13T23:02:30.207Z,8.40
2023-02-13T23:05:00.750Z,3.53
2023-02-13T23:07:33.328Z,4.88
2023-02-13T23:12:46.681Z,5.50
2023-02-13T23:15:25.937Z,2.58
2023-02-13T23:18:13.587Z,3.65
2023-02-13T23:20:44.319Z,3.55
2023-02-13T23:23:11.912Z,5.18
2023-02-13T23:25:41.656Z,5.22
2023-02-13T23:28:12.236Z,2.78
2023-02-13T23:30:39.973Z,5.10
2023-02-13T23:33:07.521Z,14.00
2023-02-13T23:35:34.932Z,3.92
2023-02-13T23:38:02.414Z,3.20
2023-02-13T23:40:29.815Z,2.92
2023-02-13T23:42:57.413Z,6.68
2023-02-13T23:48:12.004Z,2.17
2023-02-13T23:50:47.974Z,4.32
2023-02-13T23:53:15.429Z,3.72
2023-02-13T23:55:46.049Z,5.15
2023-02-13T23:58:13.439Z,8.20
